Time;durP1;ratioP1;P1;durP2;ratioP2;P2;SDS_P1;SDS_P2;PMS_P1;PMS_P2;Temp;Humidity;BMP_temperature;BMP_pressure;BME280_temperature;BME280_humidity;BME280_pressure;Samples;Min_cycle;Max_cycle;Signal;HPM_P1;HPM_P2
2023/04/23 00:02:38;;;;;;;33.28;20.35;;;13.80;92.20;;;;;;5063799;28;20224;-70
2023/04/23 00:05:28;;;;;;;33.13;20.77;;;13.80;92.50;;;;;;5066172;28;20219;-69
2023/04/23 00:08:19;;;;;;;31.98;20.63;;;13.70;92.70;;;;;;5070354;28;20705;-70
2023/04/23 00:11:09;;;;;;;38.33;20.60;;;13.70;92.90;;;;;;5082471;28;20219;-70
2023/04/23 00:13:58;;;;;;;33.35;21.25;;;13.60;93.20;;;;;;5069730;28;20303;-69
2023/04/23 00:16:48;;;;;;;29.38;20.52;;;13.50;93.30;;;;;;5073775;28;20224;-71
2023/04/23 00:19:36;;;;;;;34.78;21.02;;;13.60;93.20;;;;;;5086909;28;20691;-71
2023/04/23 00:22:26;;;;;;;32.60;20.10;;;13.60;93.30;;;;;;5071905;28;20304;-71
2023/04/23 00:25:16;;;;;;;31.10;20.42;;;13.50;93.60;;;;;;5074929;28;20215;-71
2023/04/23 00:28:05;;;;;;;30.80;19.88;;;13.50;93.40;;;;;;5068731;28;20220;-71
2023/04/23 00:30:54;;;;;;;32.78;21.13;;;13.60;93.60;;;;;;5071845;28;20223;-69
2023/04/23 00:33:43;;;;;;;35.88;20.45;;;13.60;93.20;;;;;;5077991;28;20224;-71
2023/04/23 00:36:32;;;;;;;31.63;20.15;;;13.50;93.40;;;;;;5091392;27;20220;-72
2023/04/23 00:39:21;;;;;;;33.05;19.92;;;13.50;93.60;;;;;;5097482;27;20224;-72
2023/04/23 00:42:12;;;;;;;31.42;20.63;;;13.40;93.60;;;;;;5090696;27;21133;-70
2023/04/23 00:45:01;;;;;;;31.30;20.85;;;13.20;93.80;;;;;;5070338;28;20321;-69
2023/04/23 00:47:51;;;;;;;32.88;19.70;;;13.30;93.80;;;;;;5065763;28;20250;-70
2023/04/23 00:50:39;;;;;;;28.17;19.88;;;13.20;93.80;;;;;;5095652;27;20224;-71
2023/04/23 00:53:29;;;;;;;31.73;19.13;;;13.10;93.90;;;;;;5079145;27;20238;-71
2023/04/23 00:56:19;;;;;;;29.60;19.25;;;13.10;94.10;;;;;;5070003;28;20347;-71
2023/04/23 00:59:09;;;;;;;30.90;19.65;;;13.00;94.40;;;;;;5076120;28;20224;-69
2023/04/23 01:01:58;;;;;;;31.95;19.42;;;13.20;94.00;;;;;;5097986;27;20701;-69
2023/04/23 01:04:50;;;;;;;26.85;18.60;;;13.10;94.10;;;;;;5081233;28;20227;-68
2023/04/23 01:07:39;;;;;;;28.55;18.67;;;13.00;94.40;;;;;;5076011;28;20280;-69
2023/04/23 01:10:28;;;;;;;29.88;19.42;;;13.00;94.50;;;;;;5073020;28;20770;-69
2023/04/23 01:13:17;;;;;;;28.65;20.23;;;13.00;94.20;;;;;;5071982;28;20240;-69
2023/04/23 01:16:08;;;;;;;30.92;18.80;;;13.00;94.60;;;;;;5073455;28;20208;-69
2023/04/23 01:18:58;;;;;;;30.63;18.92;;;12.90;94.80;;;;;;5089525;27;20251;-69
2023/04/23 01:21:49;;;;;;;31.65;20.10;;;13.00;94.90;;;;;;5081255;28;20226;-68
2023/04/23 01:24:41;;;;;;;27.80;18.77;;;12.90;94.90;;;;;;5069652;28;20254;-68
2023/04/23 01:27:32;;;;;;;31.08;19.38;;;12.80;95.20;;;;;;5072046;28;20313;-67
2023/04/23 01:30:22;;;;;;;31.52;19.65;;;12.70;95.40;;;;;;5071101;28;20230;-68
2023/04/23 01:33:11;;;;;;;32.83;20.52;;;12.60;95.60;;;;;;5077282;28;20224;-69
2023/04/23 01:36:00;;;;;;;28.92;18.75;;;12.90;95.40;;;;;;5094384;27;20220;-67
2023/04/23 01:38:50;;;;;;;31.25;19.42;;;12.70;95.80;;;;;;5066373;28;20227;-68
2023/04/23 01:41:41;;;;;;;27.90;18.52;;;12.60;96.00;;;;;;5068174;28;20301;-70
2023/04/23 01:44:30;;;;;;;31.63;19.92;;;12.60;96.20;;;;;;5067355;28;20247;-69
2023/04/23 01:47:20;;;;;;;28.45;19.63;;;12.50;96.20;;;;;;5068855;28;20246;-69
2023/04/23 01:50:10;;;;;;;28.77;19.33;;;12.40;96.50;;;;;;5072631;28;20234;-69
2023/04/23 01:52:58;;;;;;;29.27;19.80;;;12.40;96.60;;;;;;5070576;28;20231;-68
2023/04/23 01:55:48;;;;;;;32.20;18.02;;;12.40;96.50;;;;;;5074885;28;20235;-69
2023/04/23 01:58:38;;;;;;;29.00;19.13;;;12.30;96.80;;;;;;5075027;28;20755;-69
2023/04/23 02:01:44;;;;;;;29.55;18.52;;;12.30;96.90;;;;;;5072844;28;20628;-69
2023/04/23 02:04:34;;;;;;;25.80;18.10;;;12.40;96.90;;;;;;5077777;28;20235;-71
2023/04/23 02:07:23;;;;;;;27.15;18.10;;;12.20;96.90;;;;;;5072157;28;20228;-70
2023/04/23 02:10:12;;;;;;;28.45;18.08;;;12.20;97.00;;;;;;5073414;28;20211;-70
2023/04/23 02:13:02;;;;;;;26.63;18.60;;;12.20;97.10;;;;;;5076840;28;20314;-69
2023/04/23 02:15:52;;;;;;;27.35;18.52;;;12.10;97.30;;;;;;5073476;28;20319;-69
2023/04/23 02:18:41;;;;;;;28.13;17.60;;;12.10;97.40;;;;;;5083533;28;20227;-69
2023/04/23 02:21:31;;;;;;;25.95;16.92;;;12.10;97.20;;;;;;5079955;28;20224;-69
2023/04/23 02:24:20;;;;;;;27.80;18.80;;;12.00;97.40;;;;;;5069359;28;20239;-70
2023/04/23 02:27:08;;;;;;;28.73;18.73;;;12.00;97.80;;;;;;5082502;28;20300;-69
2023/04/23 02:29:57;;;;;;;26.13;18.25;;;12.00;98.20;;;;;;5078983;27;20216;-68
2023/04/23 02:32:47;;;;;;;25.45;17.55;;;11.90;98.00;;;;;;5077547;28;20216;-67
2023/04/23 02:35:37;;;;;;;29.13;18.42;;;11.80;98.00;;;;;;5075512;28;20227;-71
2023/04/23 02:38:26;;;;;;;27.90;17.50;;;11.90;98.00;;;;;;5072799;28;20591;-69
2023/04/23 02:41:15;;;;;;;25.90;17.10;;;11.90;97.90;;;;;;5077269;28;20321;-69
2023/04/23 02:44:04;;;;;;;28.15;17.98;;;12.00;98.00;;;;;;5069688;28;20234;-70
2023/04/23 02:46:53;;;;;;;26.98;18.17;;;11.90;98.20;;;;;;5095547;27;20833;-70
2023/04/23 02:49:44;;;;;;;28.38;17.88;;;11.90;98.40;;;;;;5072029;28;20231;-72
2023/04/23 02:52:34;;;;;;;29.45;17.33;;;11.80;98.40;;;;;;5086040;28;20210;-68
2023/04/23 02:55:28;;;;;;;26.23;18.27;;;11.70;98.80;;;;;;5079580;28;20262;-71
2023/04/23 02:58:17;;;;;;;29.83;17.17;;;11.80;99.00;;;;;;5073406;28;20228;-70
2023/04/23 03:01:09;;;;;;;25.58;17.67;;;11.90;98.70;;;;;;5079028;28;20227;-69
2023/04/23 03:03:58;;;;;;;23.98;16.33;;;11.80;98.60;;;;;;5069031;28;20358;-69
2023/04/23 03:06:49;;;;;;;27.27;17.60;;;11.80;98.80;;;;;;5070132;28;20223;-69
2023/04/23 03:09:37;;;;;;;26.15;17.30;;;11.80;98.60;;;;;;5078429;28;20251;-71
2023/04/23 03:12:27;;;;;;;24.73;17.20;;;11.80;98.70;;;;;;5067523;28;21058;-69
2023/04/23 03:15:16;;;;;;;27.25;17.17;;;11.60;98.90;;;;;;5098073;27;20243;-72
2023/04/23 03:18:07;;;;;;;27.77;16.95;;;11.50;99.20;;;;;;5070940;28;20227;-72
2023/04/23 03:20:57;;;;;;;25.83;17.45;;;11.60;99.20;;;;;;5084755;28;21030;-71
2023/04/23 03:23:47;;;;;;;25.20;17.30;;;11.60;99.10;;;;;;5076780;28;20243;-71
2023/04/23 03:26:37;;;;;;;29.48;17.85;;;11.60;99.20;;;;;;5067904;28;20227;-70
2023/04/23 03:29:27;;;;;;;25.30;17.17;;;11.60;99.20;;;;;;5101599;27;20258;-71
2023/04/23 03:32:16;;;;;;;26.08;17.00;;;11.50;99.50;;;;;;5082909;28;20232;-68
2023/04/23 03:35:05;;;;;;;26.23;18.15;;;11.60;99.40;;;;;;5083020;28;20223;-67
2023/04/23 03:37:54;;;;;;;29.15;17.90;;;11.60;99.20;;;;;;5070891;28;20669;-69
2023/04/23 03:40:46;;;;;;;24.00;16.63;;;11.60;99.30;;;;;;5073171;28;20215;-68
2023/04/23 03:43:35;;;;;;;29.63;18.15;;;11.50;99.60;;;;;;5074463;28;20303;-67
2023/04/23 03:46:24;;;;;;;26.80;17.45;;;11.40;99.80;;;;;;5071660;28;20216;-66
2023/04/23 03:49:13;;;;;;;28.35;17.23;;;11.30;99.90;;;;;;5095824;27;21121;-67
2023/04/23 03:52:03;;;;;;;26.67;17.65;;;11.30;99.90;;;;;;5066711;28;20220;-71
2023/04/23 03:54:53;;;;;;;26.65;18.17;;;11.30;99.90;;;;;;5081232;28;20303;-71
2023/04/23 03:57:50;;;;;;;25.98;18.08;;;11.60;99.90;;;;;;5080540;28;20307;-70
2023/04/23 04:00:43;;;;;;;29.98;18.95;;;11.40;99.90;;;;;;5068412;28;20428;-71
2023/04/23 04:03:32;;;;;;;26.35;17.63;;;11.40;99.90;;;;;;5072528;28;20220;-69
2023/04/23 04:06:21;;;;;;;26.92;17.95;;;11.40;99.90;;;;;;5064600;28;20224;-70
2023/04/23 04:09:10;;;;;;;28.77;18.23;;;11.30;99.90;;;;;;5069698;28;20222;-69
2023/04/23 04:11:59;;;;;;;28.67;18.20;;;11.40;99.90;;;;;;5071004;28;20226;-69
2023/04/23 04:14:50;;;;;;;24.00;17.42;;;11.30;99.90;;;;;;5071609;28;20235;-69
2023/04/23 04:17:39;;;;;;;24.83;17.40;;;11.30;99.90;;;;;;5068225;28;20223;-68
2023/04/23 04:20:28;;;;;;;28.88;17.80;;;11.50;99.90;;;;;;5066061;28;20238;-67
2023/04/23 04:23:17;;;;;;;26.17;17.83;;;11.40;99.90;;;;;;5069444;28;20216;-68
2023/04/23 04:26:06;;;;;;;24.38;17.17;;;11.50;99.90;;;;;;5064128;28;20223;-69
2023/04/23 04:28:57;;;;;;;22.58;17.15;;;11.60;99.90;;;;;;5064651;28;20220;-67
2023/04/23 04:31:47;;;;;;;24.55;16.83;;;11.70;99.90;;;;;;5067977;28;20225;-68
2023/04/23 04:34:37;;;;;;;28.75;17.70;;;11.70;99.90;;;;;;5068390;28;20862;-68
2023/04/23 04:37:29;;;;;;;23.65;16.30;;;11.80;99.90;;;;;;5066370;28;20708;-68
2023/04/23 04:40:18;;;;;;;24.58;17.27;;;11.90;99.90;;;;;;5066320;28;20675;-68
2023/04/23 04:43:08;;;;;;;23.02;17.17;;;11.90;99.90;;;;;;5088581;28;20810;-67
2023/04/23 04:45:58;;;;;;;26.45;18.00;;;11.90;99.90;;;;;;5067960;28;20678;-66
2023/04/23 04:48:48;;;;;;;26.00;18.58;;;11.90;99.90;;;;;;5089930;28;20225;-67
2023/04/23 04:51:38;;;;;;;27.30;18.05;;;12.00;99.80;;;;;;5071456;28;20227;-68
2023/04/23 04:54:31;;;;;;;27.33;17.77;;;12.20;99.90;;;;;;5068198;28;20235;-67
2023/04/23 04:57:21;;;;;;;28.73;18.35;;;12.30;99.50;;;;;;5076019;28;20738;-67
2023/04/23 05:00:25;;;;;;;27.90;18.83;;;12.20;99.40;;;;;;5072144;28;20307;-68
2023/04/23 05:03:14;;;;;;;26.02;18.10;;;12.30;99.40;;;;;;5069871;28;20224;-67
2023/04/23 05:06:08;;;;;;;26.75;18.05;;;12.40;99.30;;;;;;5075480;27;20218;-69
2023/04/23 05:08:56;;;;;;;26.90;17.85;;;12.60;99.20;;;;;;5070848;28;20234;-68
2023/04/23 05:11:45;;;;;;;26.52;17.77;;;12.80;99.00;;;;;;5077440;28;20694;-68
2023/04/23 05:14:34;;;;;;;22.17;16.77;;;12.90;98.60;;;;;;5072170;28;20228;-69
2023/04/23 05:17:26;;;;;;;27.60;17.23;;;12.90;98.60;;;;;;5078015;28;20232;-68
2023/04/23 05:20:15;;;;;;;23.52;17.23;;;13.00;98.20;;;;;;5080336;27;20227;-70
2023/04/23 05:23:05;;;;;;;23.88;16.38;;;13.00;98.30;;;;;;5083311;28;20276;-68
2023/04/23 05:25:55;;;;;;;26.45;16.92;;;13.20;98.30;;;;;;5074138;28;20738;-70
2023/04/23 05:28:44;;;;;;;23.33;16.38;;;13.40;97.90;;;;;;5064134;28;20716;-71
2023/04/23 05:31:33;;;;;;;23.55;16.67;;;13.40;97.80;;;;;;5076659;28;20750;-69
2023/04/23 05:34:22;;;;;;;25.38;15.68;;;14.30;97.20;;;;;;5076223;28;20246;-69
2023/04/23 05:37:12;;;;;;;24.95;15.38;;;15.40;95.30;;;;;;5067186;28;20231;-70
2023/04/23 05:40:05;;;;;;;22.02;15.50;;;16.20;94.10;;;;;;5071487;28;20894;-71
2023/04/23 05:42:54;;;;;;;27.15;15.35;;;17.10;92.40;;;;;;5074494;28;20219;-70
2023/04/23 05:45:43;;;;;;;19.25;14.55;;;16.20;92.90;;;;;;5067416;28;20224;-70
2023/04/23 05:48:32;;;;;;;21.33;15.45;;;15.50;93.60;;;;;;5072631;28;20216;-69
2023/04/23 05:51:21;;;;;;;19.10;14.32;;;15.10;94.10;;;;;;5076526;28;20868;-69
2023/04/23 05:54:10;;;;;;;22.33;14.30;;;15.00;94.40;;;;;;5064732;28;20224;-70
2023/04/23 05:57:00;;;;;;;18.17;14.25;;;15.00;94.70;;;;;;5074583;28;20235;-70
2023/04/23 05:59:49;;;;;;;23.35;14.43;;;15.00;94.60;;;;;;5072156;28;20232;-69
2023/04/23 06:02:38;;;;;;;19.10;14.10;;;15.00;94.80;;;;;;5070557;28;20277;-70
2023/04/23 06:05:26;;;;;;;21.33;14.07;;;14.80;94.60;;;;;;5070705;28;20496;-72
2023/04/23 06:08:15;;;;;;;22.98;13.70;;;14.80;95.00;;;;;;5077182;28;20310;-70
2023/04/23 06:11:04;;;;;;;21.48;13.05;;;14.70;95.10;;;;;;5068711;28;20219;-71
2023/04/23 06:13:55;;;;;;;20.48;13.32;;;14.80;94.90;;;;;;5071560;28;20224;-71
2023/04/23 06:16:44;;;;;;;17.02;12.38;;;14.90;95.00;;;;;;5070736;28;20228;-72
2023/04/23 06:19:33;;;;;;;20.05;14.13;;;15.10;94.50;;;;;;5076361;28;20273;-71
2023/04/23 06:22:21;;;;;;;20.58;12.25;;;15.20;94.60;;;;;;5071149;28;20236;-72
2023/04/23 06:25:10;;;;;;;17.15;12.60;;;15.40;94.60;;;;;;5101284;27;20278;-70
2023/04/23 06:27:59;;;;;;;15.77;11.77;;;15.60;94.10;;;;;;5073353;28;20231;-69
2023/04/23 06:30:52;;;;;;;16.95;12.15;;;15.70;93.90;;;;;;5077786;28;20230;-70
2023/04/23 06:33:41;;;;;;;19.08;11.60;;;15.90;94.20;;;;;;5069122;28;20223;-70
2023/04/23 06:36:31;;;;;;;16.00;11.32;;;16.70;93.40;;;;;;5065802;28;20228;-69
2023/04/23 06:39:20;;;;;;;16.70;11.27;;;18.40;91.30;;;;;;5076649;27;20312;-72
2023/04/23 06:42:08;;;;;;;14.05;10.48;;;18.40;90.20;;;;;;5072259;28;20796;-69
2023/04/23 06:45:30;;;;;;;17.73;11.32;;;17.50;91.20;;;;;;5061972;28;20220;-69
2023/04/23 06:48:21;;;;;;;17.58;11.15;;;17.80;91.40;;;;;;5068541;28;20903;-68
2023/04/23 06:51:10;;;;;;;15.30;10.63;;;18.10;90.90;;;;;;5071566;28;20227;-71
2023/04/23 06:53:59;;;;;;;15.00;10.35;;;18.40;91.20;;;;;;5071108;28;20705;-69
2023/04/23 06:56:48;;;;;;;12.63;9.93;;;19.00;89.50;;;;;;5077605;28;20758;-72
2023/04/23 06:59:36;;;;;;;16.80;9.60;;;19.30;86.90;;;;;;5069841;28;20213;-71
2023/04/23 07:02:25;;;;;;;16.63;9.82;;;19.30;86.70;;;;;;5073038;28;20430;-71
2023/04/23 07:05:17;;;;;;;15.95;9.32;;;19.50;86.40;;;;;;5097113;27;20373;-73
2023/04/23 07:08:06;;;;;;;13.25;9.00;;;19.80;85.10;;;;;;5070635;28;20606;-71
2023/04/23 07:10:55;;;;;;;12.82;9.18;;;20.20;83.70;;;;;;5083421;28;20277;-71
2023/04/23 07:13:43;;;;;;;14.50;9.18;;;20.40;84.00;;;;;;5074076;28;20685;-71
2023/04/23 07:16:32;;;;;;;12.05;8.93;;;20.90;82.40;;;;;;5073608;28;20864;-70
2023/04/23 07:19:21;;;;;;;11.35;9.10;;;21.30;82.00;;;;;;5074932;28;20224;-72
2023/04/23 07:22:12;;;;;;;13.07;8.65;;;21.50;80.20;;;;;;5063165;28;20323;-70
2023/04/23 07:25:04;;;;;;;12.68;8.27;;;21.50;78.30;;;;;;5065580;28;20224;-69
2023/04/23 07:27:53;;;;;;;10.60;8.23;;;21.70;78.10;;;;;;5063829;28;20763;-69
2023/04/23 07:30:42;;;;;;;11.65;8.77;;;21.80;77.70;;;;;;5070977;28;20241;-69
2023/04/23 07:33:31;;;;;;;12.15;8.00;;;22.10;76.50;;;;;;5064081;28;20464;-68
2023/04/23 07:36:19;;;;;;;11.13;7.85;;;22.00;75.90;;;;;;5069649;28;20228;-69
2023/04/23 07:39:10;;;;;;;9.00;7.43;;;22.20;75.10;;;;;;5067696;28;20231;-70
2023/04/23 07:42:00;;;;;;;12.65;7.40;;;22.40;72.60;;;;;;5073965;28;20827;-69
2023/04/23 07:44:49;;;;;;;11.98;7.38;;;22.60;72.80;;;;;;5075510;28;20348;-73
2023/04/23 07:47:38;;;;;;;11.63;7.03;;;22.50;73.90;;;;;;5066422;28;20228;-75
2023/04/23 07:50:27;;;;;;;9.40;7.18;;;22.90;72.20;;;;;;5066936;28;20646;-68
2023/04/23 07:53:15;;;;;;;9.45;7.28;;;23.10;71.20;;;;;;5070868;28;20750;-70
2023/04/23 07:56:09;;;;;;;8.00;6.47;;;23.20;70.60;;;;;;5064518;28;20227;-70
2023/04/23 07:58:58;;;;;;;9.25;6.57;;;23.30;69.60;;;;;;5063135;28;20289;-70
2023/04/23 08:01:47;;;;;;;8.32;6.03;;;23.40;68.80;;;;;;5064886;28;20964;-69
2023/04/23 08:04:36;;;;;;;8.45;6.82;;;23.40;66.70;;;;;;5069635;28;20223;-70
2023/04/23 08:07:25;;;;;;;8.88;5.57;;;23.50;66.30;;;;;;5065718;28;20294;-70
2023/04/23 08:10:14;;;;;;;6.35;5.45;;;23.90;63.10;;;;;;5067220;28;20231;-73
2023/04/23 08:13:11;;;;;;;7.93;5.68;;;24.10;66.10;;;;;;5067940;28;20220;-73
2023/04/23 08:15:59;;;;;;;10.48;5.25;;;24.30;66.10;;;;;;5069231;28;20272;-74
2023/04/23 08:18:48;;;;;;;9.75;4.78;;;24.40;62.20;;;;;;5069232;28;20435;-74
2023/04/23 08:21:52;;;;;;;8.68;5.20;;;24.90;63.60;;;;;;5073232;28;20591;-73
2023/04/23 08:24:41;;;;;;;6.28;5.30;;;25.00;61.80;;;;;;5081975;28;20238;-74
2023/04/23 08:27:30;;;;;;;9.88;5.40;;;24.80;61.20;;;;;;5068479;28;20227;-74
2023/04/23 08:30:21;;;;;;;9.95;5.05;;;25.10;59.30;;;;;;5072009;28;20235;-74
2023/04/23 08:33:10;;;;;;;4.93;4.43;;;25.30;57.40;;;;;;5079948;28;20227;-75
2023/04/23 08:35:59;;;;;;;8.13;5.70;;;25.20;56.20;;;;;;5084538;28;20235;-73
2023/04/23 08:38:48;;;;;;;6.45;5.20;;;25.40;56.70;;;;;;5078759;28;20215;-74
2023/04/23 08:41:44;;;;;;;8.88;5.13;;;25.90;57.10;;;;;;5082965;28;20583;-73
2023/04/23 08:44:36;;;;;;;6.22;4.93;;;26.00;57.20;;;;;;5072137;28;20239;-73
2023/04/23 08:47:29;;;;;;;11.20;5.18;;;26.50;58.20;;;;;;5074491;28;20235;-74
2023/04/23 08:50:19;;;;;;;7.65;5.15;;;26.30;61.10;;;;;;5066579;28;20255;-74
2023/04/23 08:53:09;;;;;;;6.90;4.60;;;26.20;57.30;;;;;;5084465;28;20307;-74
2023/04/23 08:56:00;;;;;;;5.55;4.38;;;26.30;59.20;;;;;;5084452;28;20224;-74
2023/04/23 08:58:51;;;;;;;7.35;4.40;;;26.40;58.20;;;;;;5091587;27;20275;-74
2023/04/23 09:01:40;;;;;;;6.65;4.07;;;26.50;56.80;;;;;;5084609;28;20302;-74
2023/04/23 09:04:31;;;;;;;6.22;4.18;;;;;;;;;;5094864;28;20216;-74
2023/04/23 09:07:20;;;;;;;6.82;4.03;;;;;;;;;;5080685;28;20314;-74
2023/04/23 09:10:11;;;;;;;6.93;4.95;;;27.60;52.20;;;;;;5083520;28;20223;-74
2023/04/23 09:13:02;;;;;;;5.88;4.28;;;27.40;52.00;;;;;;5085011;28;20216;-75
2023/04/23 09:15:52;;;;;;;7.05;4.97;;;27.50;52.10;;;;;;5081380;28;20223;-74
2023/04/23 09:18:42;;;;;;;5.95;4.47;;;27.80;51.40;;;;;;5074599;28;20302;-74
2023/04/23 09:21:33;;;;;;;6.05;4.60;;;28.30;50.80;;;;;;5072040;28;21116;-74
2023/04/23 09:24:23;;;;;;;5.78;4.35;;;28.30;50.50;;;;;;5070276;28;20529;-74
2023/04/23 09:27:12;;;;;;;4.68;4.22;;;28.30;49.50;;;;;;5073460;28;20227;-74
2023/04/23 09:30:03;;;;;;;5.07;4.10;;;28.30;50.50;;;;;;5078069;28;20227;-72
2023/04/23 09:32:52;;;;;;;8.48;4.55;;;28.60;49.60;;;;;;5076493;28;20690;-73
2023/04/23 09:35:42;;;;;;;7.85;4.90;;;29.40;49.60;;;;;;5112602;27;20238;-73
2023/04/23 09:38:34;;;;;;;6.32;4.70;;;29.70;50.10;;;;;;5079389;28;20235;-73
2023/04/23 09:41:24;;;;;;;5.20;4.57;;;29.90;49.30;;;;;;5073093;28;20274;-73
2023/04/23 09:44:18;;;;;;;5.65;4.45;;;30.90;48.30;;;;;;5082646;28;20223;-73
2023/04/23 09:47:13;;;;;;;6.07;4.43;;;30.60;47.30;;;;;;5064496;28;20223;-75
2023/04/23 09:50:02;;;;;;;7.13;5.05;;;30.80;47.00;;;;;;5073700;28;20227;-72
2023/04/23 09:52:55;;;;;;;9.18;4.30;;;31.10;47.30;;;;;;5072184;28;20801;-74
2023/04/23 09:55:46;;;;;;;7.22;4.68;;;31.80;46.90;;;;;;5075020;28;20234;-73
2023/04/23 09:58:34;;;;;;;6.65;4.78;;;32.20;46.60;;;;;;5084513;27;20216;-73
2023/04/23 10:01:28;;;;;;;5.85;4.35;;;32.10;45.00;;;;;;5071934;28;20309;-73
2023/04/23 10:04:23;;;;;;;5.75;4.70;;;31.60;44.90;;;;;;5070908;28;20249;-74
2023/04/23 10:07:13;;;;;;;4.78;4.28;;;31.50;46.30;;;;;;5064986;28;20753;-74
2023/04/23 10:10:09;;;;;;;6.88;4.40;;;31.80;45.30;;;;;;5072778;28;20230;-74
2023/04/23 10:12:59;;;;;;;7.45;3.72;;;31.70;44.80;;;;;;5075313;28;20246;-73
2023/04/23 10:15:49;;;;;;;4.60;3.90;;;32.10;44.90;;;;;;5071754;28;20653;-72
2023/04/23 10:18:38;;;;;;;5.60;4.00;;;32.00;44.20;;;;;;5074231;28;20262;-73
2023/04/23 10:21:32;;;;;;;9.40;4.00;;;32.40;43.70;;;;;;5071752;28;20324;-73
2023/04/23 10:24:41;;;;;;;6.45;4.13;;;32.80;43.50;;;;;;5074423;28;20243;-74
2023/04/23 10:27:33;;;;;;;4.57;4.10;;;33.00;42.60;;;;;;5076146;28;20280;-76
2023/04/23 10:30:41;;;;;;;7.05;3.92;;;32.60;42.70;;;;;;5070226;28;20314;-73
2023/04/23 10:33:32;;;;;;;4.78;4.13;;;33.00;42.60;;;;;;5085936;28;20219;-73
2023/04/23 10:36:33;;;;;;;5.63;4.10;;;34.10;41.10;;;;;;5071749;28;20700;-74
2023/04/23 10:39:24;;;;;;;4.35;3.95;;;35.10;41.70;;;;;;5086314;28;20577;-72
2023/04/23 10:42:18;;;;;;;4.97;3.65;;;34.60;40.50;;;;;;5085470;28;20243;-74
2023/04/23 10:45:14;;;;;;;8.77;3.85;;;34.50;40.60;;;;;;5070065;28;20227;-73
2023/04/23 10:48:16;;;;;;;5.55;3.78;;;34.80;40.90;;;;;;5070532;28;20226;-71
2023/04/23 10:51:05;;;;;;;6.63;3.47;;;35.30;39.90;;;;;;5065245;28;20771;-74
2023/04/23 10:54:15;;;;;;;4.32;3.72;;;34.60;40.60;;;;;;5078699;28;20300;-73
2023/04/23 10:57:05;;;;;;;5.43;3.72;;;34.80;41.40;;;;;;5088549;28;20227;-73
2023/04/23 10:59:57;;;;;;;5.78;4.00;;;34.80;41.00;;;;;;5076830;28;20215;-74
2023/04/23 11:02:46;;;;;;;5.18;3.58;;;34.80;41.20;;;;;;5079300;28;20237;-73
2023/04/23 11:05:38;;;;;;;6.03;3.55;;;35.10;39.30;;;;;;5082963;28;20214;-73
2023/04/23 11:08:30;;;;;;;4.35;3.60;;;35.20;39.20;;;;;;5087639;28;20222;-73
2023/04/23 11:11:19;;;;;;;7.40;3.70;;;35.20;38.70;;;;;;5072036;28;20234;-73
2023/04/23 11:14:14;;;;;;;6.47;3.63;;;34.70;38.80;;;;;;5073217;28;20235;-72
2023/04/23 11:17:03;;;;;;;4.32;3.55;;;34.60;38.60;;;;;;5061009;28;20618;-73
2023/04/23 11:20:10;;;;;;;5.50;3.55;;;35.30;38.80;;;;;;5086310;28;20605;-73
2023/04/23 11:23:00;;;;;;;4.22;3.83;;;35.80;37.80;;;;;;5077443;28;20780;-73
2023/04/23 11:25:49;;;;;;;3.83;3.25;;;35.60;38.20;;;;;;5079547;28;20254;-73
2023/04/23 11:28:41;;;;;;;7.20;3.38;;;36.40;37.60;;;;;;5066554;28;20592;-73
2023/04/23 11:31:32;;;;;;;3.67;3.38;;;36.10;37.10;;;;;;5077037;28;20235;-73
2023/04/23 11:34:22;;;;;;;3.42;3.20;;;36.00;36.90;;;;;;5074617;28;20579;-73
2023/04/23 11:37:12;;;;;;;5.10;3.50;;;36.90;36.90;;;;;;5075522;28;20657;-75
2023/04/23 11:40:09;;;;;;;7.18;3.35;;;38.30;36.40;;;;;;5075691;28;20646;-71
2023/04/23 11:42:58;;;;;;;8.32;3.72;;;38.70;35.70;;;;;;5092346;28;20297;-73
2023/04/23 11:45:48;;;;;;;5.85;3.38;;;39.10;34.70;;;;;;5076260;28;20215;-72
2023/04/23 11:48:40;;;;;;;5.75;4.00;;;39.10;33.80;;;;;;5091986;28;20222;-73
2023/04/23 11:51:29;;;;;;;6.15;3.40;;;39.80;33.70;;;;;;5079322;28;20383;-73
2023/04/23 11:54:18;;;;;;;4.57;3.67;;;;;;;;;;5085650;27;20253;-74
2023/04/23 11:57:10;;;;;;;4.75;3.30;;;39.70;44.30;;;;;;5076659;27;20249;-74
2023/04/23 11:59:59;;;;;;;6.40;3.38;;;40.50;41.90;;;;;;5063525;28;20230;-74
2023/04/23 12:02:55;;;;;;;5.35;3.72;;;40.60;39.90;;;;;;5081809;28;20225;-72
2023/04/23 12:05:44;;;;;;;6.60;3.50;;;40.20;39.10;;;;;;5075781;28;20317;-73
2023/04/23 12:08:35;;;;;;;4.05;3.20;;;39.80;40.00;;;;;;5061013;28;20730;-72
2023/04/23 12:11:24;;;;;;;5.38;3.53;;;39.40;39.90;;;;;;5074021;28;20226;-72
2023/04/23 12:14:15;;;;;;;3.95;3.17;;;37.30;40.90;;;;;;5075176;28;20241;-73
2023/04/23 12:17:10;;;;;;;8.13;3.58;;;35.30;41.80;;;;;;5085802;28;20222;-71
2023/04/23 12:20:03;;;;;;;4.82;3.42;;;32.60;44.60;;;;;;5074314;28;20235;-72
2023/04/23 12:22:52;;;;;;;3.85;3.55;;;30.60;49.80;;;;;;5079462;28;20554;-72
2023/04/23 12:25:41;;;;;;;5.15;3.80;;;;;;;;;;5072427;28;20250;-71
2023/04/23 12:28:31;;;;;;;7.30;4.53;;;28.30;40.80;;;;;;5099281;28;20219;-72
2023/04/23 12:31:22;;;;;;;4.90;3.92;;;27.80;42.20;;;;;;5073665;28;20721;-72
2023/04/23 12:34:15;;;;;;;4.95;4.35;;;27.30;42.60;;;;;;5078361;28;20739;-70
2023/04/23 12:37:07;;;;;;;5.90;4.10;;;26.80;43.00;;;;;;5068536;28;20234;-72
2023/04/23 12:39:58;;;;;;;9.75;4.50;;;26.40;43.80;;;;;;5077016;28;20243;-72
2023/04/23 12:42:47;;;;;;;4.47;4.05;;;26.00;43.80;;;;;;5073495;28;20226;-72
2023/04/23 12:45:38;;;;;;;5.80;3.90;;;26.10;44.00;;;;;;5078182;28;20265;-71
2023/04/23 12:48:28;;;;;;;5.60;3.80;;;25.70;43.10;;;;;;5106310;27;20288;-73
2023/04/23 12:51:17;;;;;;;5.35;4.10;;;25.50;42.80;;;;;;5074039;28;20222;-73
2023/04/23 12:54:06;;;;;;;4.43;3.92;;;25.60;43.50;;;;;;5080961;28;20248;-72
2023/04/23 12:57:00;;;;;;;4.82;3.97;;;25.50;44.60;;;;;;5098149;28;20286;-71
2023/04/23 12:59:49;;;;;;;5.32;4.10;;;25.30;44.70;;;;;;5077839;28;20544;-71
2023/04/23 13:02:38;;;;;;;5.63;4.20;;;25.10;45.90;;;;;;5075050;28;20418;-72
2023/04/23 13:05:28;;;;;;;7.05;3.97;;;25.00;46.40;;;;;;5068534;28;20221;-71
2023/04/23 13:08:17;;;;;;;6.38;4.32;;;24.90;46.50;;;;;;5074228;28;20219;-71
2023/04/23 13:11:06;;;;;;;8.32;4.18;;;25.00;46.30;;;;;;5074766;28;20335;-71
2023/04/23 13:13:55;;;;;;;7.22;3.95;;;24.80;46.30;;;;;;5081899;28;20219;-73
2023/04/23 13:16:44;;;;;;;7.28;4.53;;;24.80;46.00;;;;;;5103101;27;20705;-71
2023/04/23 13:19:34;;;;;;;5.95;4.20;;;24.80;45.80;;;;;;5072832;28;20248;-72
2023/04/23 13:22:27;;;;;;;4.70;4.30;;;24.60;45.90;;;;;;5092310;28;20227;-72
2023/04/23 13:25:20;;;;;;;5.60;3.88;;;24.60;46.10;;;;;;5076620;28;20341;-72
2023/04/23 13:28:08;;;;;;;7.80;4.10;;;24.40;46.20;;;;;;5075940;28;20227;-72
2023/04/23 13:30:57;;;;;;;7.25;4.47;;;24.50;46.40;;;;;;5084874;28;20220;-71
2023/04/23 13:33:46;;;;;;;4.68;3.70;;;24.10;49.90;;;;;;5073760;28;20239;-72
2023/04/23 13:36:36;;;;;;;5.00;3.80;;;24.20;47.60;;;;;;5053943;28;20231;-72
2023/04/23 13:39:26;;;;;;;6.55;3.85;;;24.40;47.90;;;;;;5073657;28;20227;-72
2023/04/23 13:42:15;;;;;;;5.07;4.03;;;24.50;48.10;;;;;;5074882;28;20228;-71
2023/04/23 13:45:05;;;;;;;10.30;3.90;;;24.30;50.00;;;;;;5071548;28;20660;-72
2023/04/23 13:47:53;;;;;;;6.65;4.10;;;24.40;48.40;;;;;;5083078;28;20593;-72
2023/04/23 13:50:43;;;;;;;5.95;4.15;;;24.20;48.20;;;;;;5072331;28;20236;-72
2023/04/23 13:53:32;;;;;;;5.75;3.85;;;24.10;48.20;;;;;;5078434;28;20365;-72
2023/04/23 13:56:22;;;;;;;4.10;3.70;;;23.90;48.50;;;;;;5092402;28;20221;-72
2023/04/23 13:59:11;;;;;;;6.43;3.95;;;23.90;48.70;;;;;;5070131;28;20231;-71
2023/04/23 14:02:07;;;;;;;5.38;3.72;;;23.90;48.10;;;;;;5081629;28;20226;-72
2023/04/23 14:04:57;;;;;;;6.57;3.90;;;23.80;48.80;;;;;;5083430;28;20368;-72
2023/04/23 14:07:46;;;;;;;5.45;3.75;;;23.80;49.00;;;;;;5085160;28;20310;-73
2023/04/23 14:10:35;;;;;;;7.43;4.35;;;23.70;48.90;;;;;;5070800;28;20272;-72
2023/04/23 14:13:25;;;;;;;5.78;3.95;;;23.60;50.90;;;;;;5084024;28;20251;-71
2023/04/23 14:16:14;;;;;;;6.65;3.97;;;23.70;50.00;;;;;;5073843;28;20227;-72
2023/04/23 14:19:03;;;;;;;4.55;4.05;;;23.70;49.90;;;;;;5083908;28;20254;-73
2023/04/23 14:21:52;;;;;;;7.90;3.78;;;23.70;50.10;;;;;;5083112;28;21002;-72
2023/04/23 14:24:46;;;;;;;5.13;3.80;;;23.70;49.70;;;;;;5075337;28;20223;-72
2023/04/23 14:27:40;;;;;;;6.03;4.03;;;23.70;49.40;;;;;;5073171;28;20224;-72
2023/04/23 14:30:31;;;;;;;6.55;4.40;;;23.70;49.60;;;;;;5074630;28;20223;-71
2023/04/23 14:33:20;;;;;;;5.63;4.28;;;23.60;50.60;;;;;;5083445;28;20220;-72
2023/04/23 14:36:12;;;;;;;7.28;4.07;;;23.50;51.00;;;;;;5073152;28;20242;-72
2023/04/23 14:39:04;;;;;;;5.47;4.07;;;23.70;50.20;;;;;;5084060;28;20298;-73